Time;durP1;ratioP1;P1;durP2;ratioP2;P2;SDS_P1;SDS_P2;PMS_P1;PMS_P2;Temp;Humidity;BMP_temperature;BMP_pressure;BME280_temperature;BME280_humidity;BME280_pressure;Samples;Min_cycle;Max_cycle;Signal;HPM_P1;HPM_P2
2024/02/01 00:00:57;;;;;;;12.32;6.75;;;;;;;4.22;100.00;94153.50;2089740;28;20025;-80
2024/02/01 00:02:00;;;;;;;9.00;6.40;;;;;;;4.19;100.00;94162.13;2091150;28;20032;-82
2024/02/01 00:03:02;;;;;;;9.85;6.30;;;;;;;4.19;100.00;94168.19;2081787;28;20033;-79
2024/02/01 00:04:03;;;;;;;11.82;6.13;;;;;;;4.25;100.00;94155.41;2089856;28;20025;-79
2024/02/01 00:05:04;;;;;;;11.90;6.35;;;;;;;4.26;100.00;94154.31;2097982;28;20020;-78
2024/02/01 00:06:05;;;;;;;12.70;6.22;;;;;;;4.11;100.00;94155.16;2089793;28;20025;-79
2024/02/01 00:07:06;;;;;;;11.32;6.40;;;;;;;4.14;100.00;94154.47;2091519;28;20504;-80
2024/02/01 00:08:07;;;;;;;12.63;5.78;;;;;;;4.19;100.00;94148.88;2089479;28;20036;-80
2024/02/01 00:09:08;;;;;;;11.15;5.75;;;;;;;4.30;100.00;94152.50;2089954;28;20029;-81
2024/02/01 00:10:09;;;;;;;10.98;5.60;;;;;;;4.32;100.00;94141.56;2089842;28;20074;-79
2024/02/01 00:11:10;;;;;;;11.98;5.97;;;;;;;4.34;100.00;94139.31;2097131;28;20047;-79
2024/02/01 00:12:11;;;;;;;7.50;5.22;;;;;;;4.28;100.00;94147.56;2096847;28;20107;-80
2024/02/01 00:13:12;;;;;;;9.82;5.25;;;;;;;4.44;100.00;94144.84;2081164;28;20033;-81
2024/02/01 00:14:13;;;;;;;8.43;4.93;;;;;;;4.46;100.00;94147.88;2089795;28;20025;-80
2024/02/01 00:15:14;;;;;;;6.90;4.50;;;;;;;4.49;100.00;94149.84;2089753;28;20492;-78
2024/02/01 00:16:22;;;;;;;6.72;4.20;;;;;;;4.58;100.00;94146.19;2093377;28;20777;-79
2024/02/01 00:17:23;;;;;;;6.75;4.88;;;;;;;4.61;100.00;94146.25;2089677;28;20083;-79
2024/02/01 00:18:24;;;;;;;8.55;4.40;;;;;;;4.58;100.00;94144.31;2079689;28;20487;-80
2024/02/01 00:19:25;;;;;;;7.03;3.67;;;;;;;4.73;100.00;94142.66;2092446;28;20369;-80
2024/02/01 00:20:26;;;;;;;8.10;3.20;;;;;;;5.28;100.00;94146.59;2089733;28;20016;-79
2024/02/01 00:21:27;;;;;;;6.72;2.70;;;;;;;5.60;100.00;94145.50;2103753;28;20035;-81
2024/02/01 00:22:28;;;;;;;5.18;3.17;;;;;;;5.60;100.00;94135.66;2095562;28;20154;-80
2024/02/01 00:23:29;;;;;;;5.07;2.95;;;;;;;5.72;100.00;94132.03;2102099;28;20028;-78
2024/02/01 00:24:29;;;;;;;6.20;2.83;;;;;;;5.65;100.00;94134.59;2090789;28;20112;-79
2024/02/01 00:25:30;;;;;;;5.35;2.63;;;;;;;5.64;100.00;94130.41;2089749;28;20025;-79
2024/02/01 00:26:31;;;;;;;6.30;2.50;;;;;;;5.51;100.00;94135.91;2089439;28;20099;-79
2024/02/01 00:27:32;;;;;;;5.57;3.28;;;;;;;5.58;100.00;94129.19;2106239;28;20035;-77
2024/02/01 00:28:33;;;;;;;5.32;2.78;;;;;;;5.63;100.00;94129.66;2097758;28;20032;-81
2024/02/01 00:29:34;;;;;;;6.57;2.83;;;;;;;5.67;100.00;94125.16;2097997;28;20054;-79
2024/02/01 00:30:37;;;;;;;5.95;2.78;;;;;;;5.71;100.00;94141.13;2095455;28;20075;-81
2024/02/01 00:31:38;;;;;;;6.13;2.78;;;;;;;5.76;100.00;94138.16;2089519;28;20040;-78
2024/02/01 00:32:39;;;;;;;5.10;2.42;;;;;;;5.65;100.00;94130.03;2089514;28;20029;-79
2024/02/01 00:33:41;;;;;;;5.55;2.53;;;;;;;5.78;100.00;94136.66;2097613;28;20516;-82
2024/02/01 00:34:43;;;;;;;8.02;2.97;;;;;;;5.86;100.00;94140.19;2097858;28;20681;-81
2024/02/01 00:35:45;;;;;;;6.93;2.65;;;;;;;5.78;100.00;94130.59;2097695;28;20508;-83
2024/02/01 00:36:46;;;;;;;8.57;2.80;;;;;;;6.11;100.00;94123.81;2097750;28;20074;-79
2024/02/01 00:37:47;;;;;;;6.30;3.00;;;;;;;6.14;100.00;94121.19;2098281;28;20021;-82
2024/02/01 00:38:48;;;;;;;5.68;2.50;;;;;;;6.02;100.00;94118.78;2089845;28;20455;-81
2024/02/01 00:39:48;;;;;;;4.05;2.70;;;;;;;5.98;100.00;94118.75;2090000;28;20083;-80
2024/02/01 00:40:49;;;;;;;4.43;2.40;;;;;;;6.22;100.00;94124.69;2105744;28;20122;-80
2024/02/01 00:41:58;;;;;;;5.25;2.58;;;;;;;6.11;100.00;94113.97;2089878;28;20111;-79
2024/02/01 00:42:59;;;;;;;5.95;2.95;;;;;;;6.41;100.00;94116.56;2085779;28;20030;-79
2024/02/01 00:44:00;;;;;;;4.50;2.20;;;;;;;6.40;100.00;94119.56;2087841;28;20021;-80
2024/02/01 00:45:02;;;;;;;8.85;2.40;;;;;;;6.49;100.00;94112.06;2098572;28;20028;-83
2024/02/01 00:46:03;;;;;;;5.20;2.45;;;;;;;6.55;100.00;94113.28;2088982;28;20025;-81
2024/02/01 00:47:04;;;;;;;4.28;2.92;;;;;;;6.47;100.00;94101.81;2083464;28;20095;-80
2024/02/01 00:48:06;;;;;;;5.78;2.50;;;;;;;6.55;100.00;94116.72;2085635;28;20171;-79
2024/02/01 00:49:07;;;;;;;7.05;2.63;;;;;;;6.90;100.00;94096.91;2087406;28;20827;-81
2024/02/01 00:50:08;;;;;;;5.18;3.15;;;;;;;6.93;100.00;94106.78;2085577;28;20036;-80
2024/02/01 00:51:09;;;;;;;4.95;2.55;;;;;;;7.19;100.00;94092.53;2085822;28;20099;-79
2024/02/01 00:52:10;;;;;;;6.50;2.15;;;;;;;7.29;100.00;94101.75;2091873;28;20107;-78
2024/02/01 00:53:11;;;;;;;3.33;2.40;;;;;;;7.48;100.00;94090.84;2087929;28;20090;-79
2024/02/01 00:54:12;;;;;;;5.78;2.50;;;;;;;7.37;100.00;94094.56;2081126;28;20052;-80
2024/02/01 00:55:13;;;;;;;7.15;2.47;;;;;;;7.34;100.00;94097.97;2088862;28;20032;-78
2024/02/01 00:56:14;;;;;;;5.03;2.60;;;;;;;7.26;100.00;94102.47;2089276;28;20029;-79
2024/02/01 00:57:15;;;;;;;7.10;2.88;;;;;;;7.12;100.00;94097.06;2097268;28;20021;-79
2024/02/01 00:58:16;;;;;;;7.15;2.60;;;;;;;7.20;100.00;94095.97;2089533;28;20021;-80
2024/02/01 00:59:17;;;;;;;6.55;2.72;;;;;;;7.11;100.00;94090.19;2089577;28;20382;-79
2024/02/01 01:00:18;;;;;;;5.18;2.83;;;;;;;7.00;100.00;94087.47;2097552;28;20060;-81
2024/02/01 01:01:19;;;;;;;7.30;3.13;;;;;;;7.20;100.00;94093.31;2089211;28;20492;-81
2024/02/01 01:02:20;;;;;;;5.45;2.55;;;;;;;7.46;100.00;94097.66;2089299;28;20029;-82
2024/02/01 01:03:21;;;;;;;6.05;2.55;;;;;;;7.50;100.00;94095.78;2081225;28;20816;-78
2024/02/01 01:04:22;;;;;;;10.65;3.33;;;;;;;7.40;100.00;94099.91;2089018;28;20021;-80
2024/02/01 01:05:23;;;;;;;4.90;2.60;;;;;;;7.35;100.00;94100.25;2081257;28;20028;-80
2024/02/01 01:06:24;;;;;;;6.20;2.42;;;;;;;7.42;100.00;94102.97;2081175;28;20099;-82
2024/02/01 01:07:25;;;;;;;7.95;3.28;;;;;;;7.39;100.00;94095.72;2097151;28;20521;-79
2024/02/01 01:08:26;;;;;;;6.93;3.08;;;;;;;7.24;100.00;94092.22;2097635;28;20016;-80
2024/02/01 01:09:27;;;;;;;6.07;2.83;;;;;;;7.25;100.00;94103.63;2089444;28;20052;-83
2024/02/01 01:10:28;;;;;;;7.50;2.70;;;;;;;7.09;100.00;94092.47;2089828;28;20021;-82
2024/02/01 01:11:30;;;;;;;7.47;2.72;;;;;;;7.13;100.00;94090.63;2094440;28;20527;-81
2024/02/01 01:12:31;;;;;;;5.45;3.38;;;;;;;7.07;100.00;94090.97;2094558;28;20024;-80
2024/02/01 01:13:32;;;;;;;6.70;3.67;;;;;;;7.15;100.00;94093.66;2085944;28;20033;-80
2024/02/01 01:14:33;;;;;;;4.43;3.08;;;;;;;7.41;100.00;94103.31;2088340;28;20025;-81
2024/02/01 01:15:34;;;;;;;6.40;2.90;;;;;;;7.45;100.00;94088.91;2094977;28;20079;-80
2024/02/01 01:16:35;;;;;;;4.30;3.17;;;;;;;7.36;100.00;94093.03;2093676;28;20496;-79
2024/02/01 01:17:38;;;;;;;11.13;3.53;;;;;;;7.30;100.00;94088.06;2089223;28;20492;-79
2024/02/01 01:18:39;;;;;;;8.15;2.67;;;;;;;7.29;100.00;94093.78;2085919;28;20402;-80
2024/02/01 01:19:42;;;;;;;5.70;3.00;;;;;;;7.26;100.00;94092.59;2086929;28;20017;-80
2024/02/01 01:20:43;;;;;;;5.40;2.60;;;;;;;7.20;100.00;94099.41;2093667;28;20040;-80
2024/02/01 01:21:44;;;;;;;10.32;2.92;;;;;;;7.49;100.00;94100.34;2104880;28;20512;-81
2024/02/01 01:22:45;;;;;;;10.88;3.00;;;;;;;7.68;100.00;94094.00;2094283;28;20043;-80
2024/02/01 01:23:46;;;;;;;10.35;3.00;;;;;;;7.86;100.00;94091.41;2095766;28;20480;-80
2024/02/01 01:24:47;;;;;;;5.22;2.70;;;;;;;7.90;100.00;94092.19;2097784;28;20059;-80
2024/02/01 01:25:48;;;;;;;5.82;2.88;;;;;;;7.70;100.00;94085.63;2097486;28;20051;-80
2024/02/01 01:26:49;;;;;;;6.10;3.13;;;;;;;7.44;100.00;94091.94;2097900;28;20481;-80
2024/02/01 01:27:51;;;;;;;7.03;2.88;;;;;;;7.47;100.00;94091.22;2089198;28;20078;-79
2024/02/01 01:28:51;;;;;;;7.85;3.20;;;;;;;7.30;100.00;94088.06;2089408;28;20401;-82
2024/02/01 01:29:52;;;;;;;10.25;3.70;;;;;;;7.48;100.00;94093.50;2085550;28;20059;-81
2024/02/01 01:30:53;;;;;;;17.63;3.72;;;;;;;7.62;100.00;94094.72;2089127;28;20024;-81
2024/02/01 01:31:54;;;;;;;8.10;3.65;;;;;;;7.72;100.00;94080.69;2093926;28;20063;-82
2024/02/01 01:32:55;;;;;;;6.53;3.30;;;;;;;7.59;100.00;94088.22;2085127;28;20490;-80
2024/02/01 01:33:56;;;;;;;7.18;3.35;;;;;;;7.52;100.00;94080.22;2086255;28;20545;-79
2024/02/01 01:34:57;;;;;;;6.85;3.05;;;;;;;7.47;100.00;94073.34;2106013;28;20066;-78
2024/02/01 01:35:58;;;;;;;6.80;3.05;;;;;;;7.62;100.00;94090.16;2097891;28;20111;-80
2024/02/01 01:36:59;;;;;;;8.38;3.70;;;;;;;7.50;100.00;94082.47;2081268;28;20029;-80
2024/02/01 01:38:00;;;;;;;5.82;3.15;;;;;;;7.63;100.00;94083.69;2089688;28;20112;-82
2024/02/01 01:39:02;;;;;;;10.38;3.35;;;;;;;7.55;100.00;94087.44;2098234;28;20028;-79
2024/02/01 01:40:10;;;;;;;7.40;2.88;;;;;;;7.49;100.00;94089.69;2097751;28;20120;-79
2024/02/01 01:41:10;;;;;;;5.88;3.10;;;;;;;7.54;100.00;94099.97;2082454;28;20028;-79
2024/02/01 01:42:11;;;;;;;5.18;2.90;;;;;;;7.67;100.00;94084.47;2089491;28;20032;-80
2024/02/01 01:43:12;;;;;;;8.52;3.53;;;;;;;7.79;100.00;94096.69;2089747;28;20021;-81
2024/02/01 01:44:13;;;;;;;6.85;3.17;;;;;;;7.82;100.00;94096.72;2089547;28;20394;-78
2024/02/01 01:45:15;;;;;;;5.70;3.38;;;;;;;7.69;100.00;94103.50;2089550;28;20025;-78
2024/02/01 01:46:16;;;;;;;8.73;3.78;;;;;;;7.75;100.00;94093.25;2089353;28;20054;-81
2024/02/01 01:47:17;;;;;;;7.95;3.35;;;;;;;7.72;100.00;94094.00;2096345;28;20682;-79
2024/02/01 01:48:18;;;;;;;8.25;3.53;;;;;;;7.53;100.00;94087.06;2097521;28;20035;-80
2024/02/01 01:49:19;;;;;;;9.30;3.20;;;;;;;7.52;100.00;94099.59;2077779;28;20013;-81
2024/02/01 01:50:20;;;;;;;8.25;3.60;;;;;;;7.39;100.00;94093.06;2081299;28;20516;-78
2024/02/01 01:51:22;;;;;;;7.10;3.28;;;;;;;7.20;100.00;94080.78;2087840;28;20108;-78
2024/02/01 01:52:24;;;;;;;7.70;3.35;;;;;;;7.45;100.00;94094.22;2081933;28;20025;-81
2024/02/01 01:53:30;;;;;;;7.47;3.60;;;;;;;7.76;100.00;94078.81;2097305;28;20028;-79
2024/02/01 01:54:33;;;;;;;8.57;3.60;;;;;;;7.49;100.00;94091.59;2102680;28;20111;-79
2024/02/01 01:55:34;;;;;;;10.23;3.75;;;;;;;7.46;100.00;94081.69;2096679;28;20561;-79
2024/02/01 01:56:45;;;;;;;6.88;3.83;;;;;;;7.60;100.00;94076.47;2081242;28;20044;-79
2024/02/01 01:57:48;;;;;;;7.25;3.60;;;;;;;7.57;100.00;94079.88;2091524;28;20029;-78
2024/02/01 01:58:50;;;;;;;8.75;3.67;;;;;;;7.63;100.00;94091.66;2089198;28;20430;-79
2024/02/01 01:59:52;;;;;;;9.82;3.53;;;;;;;7.67;100.00;94097.78;2089382;28;20370;-78
2024/02/01 02:00:55;;;;;;;5.15;3.20;;;;;;;7.72;100.00;94091.31;2105556;28;20489;-79
2024/02/01 02:01:59;;;;;;;7.25;3.58;;;;;;;7.79;100.00;94086.06;2105620;28;20032;-80
2024/02/01 02:03:00;;;;;;;8.10;3.40;;;;;;;7.76;100.00;94094.78;2097274;28;20028;-80
2024/02/01 02:04:03;;;;;;;7.97;3.38;;;;;;;7.79;100.00;94092.13;2088944;28;20028;-83
2024/02/01 02:05:04;;;;;;;6.03;3.42;;;;;;;8.13;100.00;94097.22;2089152;28;20036;-78
2024/02/01 02:06:05;;;;;;;11.15;3.72;;;;;;;8.05;100.00;94088.44;2097006;28;20833;-78
2024/02/01 02:07:06;;;;;;;7.63;3.63;;;;;;;8.05;100.00;94088.44;2096378;28;20078;-80
2024/02/01 02:08:07;;;;;;;7.18;3.47;;;;;;;7.88;100.00;94091.78;2096722;28;20078;-78
2024/02/01 02:09:12;;;;;;;9.80;4.35;;;;;;;7.80;100.00;94084.91;2104505;28;20504;-79
2024/02/01 02:10:14;;;;;;;8.25;3.67;;;;;;;7.98;100.00;94082.31;2097007;28;20547;-79
2024/02/01 02:11:15;;;;;;;6.63;3.30;;;;;;;8.02;100.00;94081.19;2080182;28;20101;-79
2024/02/01 02:12:16;;;;;;;5.90;3.00;;;;;;;8.22;100.00;94086.22;2080381;28;20029;-78
2024/02/01 02:13:17;;;;;;;6.68;4.32;;;;;;;8.18;100.00;94080.13;2096227;28;20511;-81
2024/02/01 02:14:18;;;;;;;4.13;3.30;;;;;;;7.85;100.00;94076.56;2088758;28;20025;-80
2024/02/01 02:15:21;;;;;;;7.65;3.60;;;;;;;7.84;100.00;94075.03;2080617;28;20193;-82
2024/02/01 02:16:22;;;;;;;10.90;4.25;;;;;;;7.99;100.00;94081.19;2097160;28;20084;-80
2024/02/01 02:17:25;;;;;;;9.30;3.90;;;;;;;7.85;100.00;94073.91;2088787;28;20094;-82
2024/02/01 02:18:26;;;;;;;6.07;3.65;;;;;;;7.84;100.00;94080.38;2092167;28;20096;-80
2024/02/01 02:19:27;;;;;;;6.28;3.95;;;;;;;7.84;100.00;94075.03;2102096;28;20160;-79
2024/02/01 02:20:28;;;;;;;9.02;3.50;;;;;;;8.06;100.00;94078.53;2103705;28;20028;-80
2024/02/01 02:21:30;;;;;;;10.65;3.78;;;;;;;8.21;100.00;94080.13;2107630;28;20480;-81
2024/02/01 02:22:31;;;;;;;7.50;3.65;;;;;;;7.91;100.00;94076.97;2094786;28;20024;-78
2024/02/01 02:23:33;;;;;;;8.32;4.07;;;;;;;7.66;100.00;94074.97;2080476;28;20029;-79
2024/02/01 02:24:34;;;;;;;6.43;4.05;;;;;;;7.63;100.00;94078.34;2080708;28;20110;-80
2024/02/01 02:25:43;;;;;;;8.95;4.38;;;;;;;7.65;100.00;94086.00;2090732;28;20021;-81
2024/02/01 02:26:45;;;;;;;6.70;3.55;;;;;;;7.65;100.00;94097.41;2096864;28;20063;-82
2024/02/01 02:27:46;;;;;;;7.80;4.07;;;;;;;7.69;100.00;94092.84;2080697;28;20026;-78
2024/02/01 02:28:47;;;;;;;6.78;4.00;;;;;;;7.51;100.00;94092.00;2088684;28;20040;-80
2024/02/01 02:29:48;;;;;;;7.03;4.22;;;;;;;7.67;100.00;94111.06;2088711;28;20067;-79
2024/02/01 02:30:49;;;;;;;9.55;4.13;;;;;;;7.61;100.00;94098.50;2097048;28;20025;-81
2024/02/01 02:31:51;;;;;;;5.78;3.45;;;;;;;7.76;100.00;94113.41;2104936;28;20472;-82
2024/02/01 02:32:53;;;;;;;5.22;3.75;;;;;;;7.79;100.00;94094.78;2092880;28;20028;-80
2024/02/01 02:33:54;;;;;;;7.60;3.50;;;;;;;7.69;100.00;94102.75;2096792;28;20032;-80
2024/02/01 02:34:55;;;;;;;7.38;3.97;;;;;;;7.66;100.00;94100.81;2088796;28;20397;-79
2024/02/01 02:35:56;;;;;;;7.35;4.03;;;;;;;7.76;100.00;94086.78;2088834;28;20104;-81
2024/02/01 02:36:57;;;;;;;5.85;4.20;;;;;;;7.82;100.00;94090.63;2096789;28;20020;-78
2024/02/01 02:37:58;;;;;;;8.95;3.92;;;;;;;7.73;100.00;94084.91;2088613;28;20049;-79
2024/02/01 02:39:00;;;;;;;10.32;4.32;;;;;;;7.82;100.00;94080.00;2080583;28;20084;-82
2024/02/01 02:40:01;;;;;;;10.57;3.92;;;;;;;7.92;100.00;94089.16;2089007;28;20401;-79
2024/02/01 02:41:03;;;;;;;7.53;4.15;;;;;;;8.11;100.00;94082.75;2093938;28;20196;-80
2024/02/01 02:42:04;;;;;;;8.02;3.97;;;;;;;8.02;100.00;94083.09;2095116;28;20029;-79
2024/02/01 02:43:05;;;;;;;10.45;4.10;;;;;;;8.02;100.00;94089.19;2089049;28;20083;-78
2024/02/01 02:44:10;;;;;;;7.70;3.90;;;;;;;7.84;100.00;94083.03;2093111;28;20029;-82
2024/02/01 02:45:12;;;;;;;9.98;3.85;;;;;;;7.89;100.00;94085.31;2081453;28;20029;-78
2024/02/01 02:46:13;;;;;;;8.43;4.50;;;;;;;7.87;100.00;94086.84;2080403;28;20673;-83
2024/02/01 02:47:14;;;;;;;9.48;4.53;;;;;;;7.72;100.00;94094.00;2096709;28;20032;-79
2024/02/01 02:48:15;;;;;;;10.38;4.72;;;;;;;7.64;100.00;94092.44;2100945;28;20460;-81
2024/02/01 02:49:16;;;;;;;6.43;3.97;;;;;;;7.68;100.00;94096.66;2103040;28;20103;-80
2024/02/01 02:50:17;;;;;;;8.13;4.75;;;;;;;7.78;100.00;94087.94;2100885;28;20013;-79
2024/02/01 02:51:18;;;;;;;8.52;4.13;;;;;;;7.71;100.00;94092.47;2102793;28;20024;-80
2024/02/01 02:52:19;;;;;;;11.18;4.72;;;;;;;7.68;100.00;94101.97;2096142;28;20028;-78
2024/02/01 02:53:20;;;;;;;11.10;5.22;;;;;;;7.65;100.00;94105.38;2087555;28;20036;-81
2024/02/01 02:54:21;;;;;;;7.10;4.45;;;;;;;7.71;100.00;94095.13;2085944;28;20059;-82
2024/02/01 02:55:22;;;;;;;8.13;4.82;;;;;;;7.85;100.00;94105.84;2092483;28;20020;-81
2024/02/01 02:56:24;;;;;;;10.65;4.75;;;;;;;7.64;100.00;94105.72;2088484;28;20044;-79
2024/02/01 02:57:25;;;;;;;10.35;5.65;;;;;;;7.83;100.00;94106.22;2088954;28;20078;-81
2024/02/01 02:58:26;;;;;;;9.55;5.22;;;;;;;7.82;100.00;94093.28;2089412;28;20055;-80
2024/02/01 02:59:27;;;;;;;12.02;5.63;;;;;;;7.78;100.00;94105.81;2097093;28;20385;-81
2024/02/01 03:00:28;;;;;;;9.82;4.70;;;;;;;7.78;100.00;94103.91;2097281;28;20040;-79
2024/02/01 03:01:29;;;;;;;10.77;5.80;;;;;;;7.82;100.00;94093.28;2105315;28;20075;-81
2024/02/01 03:02:31;;;;;;;10.27;5.30;;;;;;;7.89;100.00;94095.22;2097013;28;20788;-80
2024/02/01 03:03:33;;;;;;;9.70;5.07;;;;;;;7.84;100.00;94101.66;2088715;28;20031;-80
2024/02/01 03:04:34;;;;;;;10.43;6.22;;;;;;;7.73;100.00;94103.53;2080551;28;20036;-81
2024/02/01 03:05:35;;;;;;;10.15;6.00;;;;;;;7.52;100.00;94106.81;2080643;28;20026;-79
2024/02/01 03:06:36;;;;;;;10.20;6.25;;;;;;;7.46;100.00;94103.75;2097070;28;20100;-80
2024/02/01 03:07:37;;;;;;;16.30;6.85;;;;;;;7.58;100.00;94111.41;2096377;28;20500;-81
2024/02/01 03:08:39;;;;;;;11.25;6.68;;;;;;;7.53;100.00;94111.75;2086778;28;20099;-81
2024/02/01 03:09:40;;;;;;;14.82;6.25;;;;;;;7.62;100.00;94121.31;2097110;28;20107;-80
2024/02/01 03:10:41;;;;;;;10.40;6.38;;;;;;;7.60;100.00;94115.63;2087911;28;20040;-78
2024/02/01 03:11:42;;;;;;;15.93;6.63;;;;;;;7.55;100.00;94114.03;2092995;28;20115;-80
2024/02/01 03:12:44;;;;;;;10.68;6.40;;;;;;;7.66;100.00;94108.78;2104058;28;20040;-81
2024/02/01 03:13:45;;;;;;;11.93;6.53;;;;;;;7.61;100.00;94115.22;2096746;28;20043;-80
2024/02/01 03:14:49;;;;;;;13.88;6.47;;;;;;;7.55;100.00;94119.38;2096982;28;20519;-81
2024/02/01 03:15:50;;;;;;;13.75;7.20;;;;;;;7.46;100.00;94122.38;2102312;28;20044;-80
2024/02/01 03:16:51;;;;;;;10.13;6.60;;;;;;;7.46;100.00;94111.75;2101094;28;20020;-81
2024/02/01 03:17:52;;;;;;;15.63;6.68;;;;;;;7.47;100.00;94107.19;2104911;28;20024;-78
2024/02/01 03:18:57;;;;;;;13.63;6.65;;;;;;;7.40;100.00;94118.53;2088657;28;20032;-81
2024/02/01 03:19:58;;;;;;;10.75;6.47;;;;;;;7.38;100.00;94112.81;2089537;28;20025;-78
2024/02/01 03:20:59;;;;;;;17.90;7.38;;;;;;;7.49;100.00;94104.91;2102085;28;20016;-78
2024/02/01 03:22:00;;;;;;;16.33;6.90;;;;;;;7.43;100.00;94115.13;2094521;28;20020;-79
2024/02/01 03:23:01;;;;;;;10.20;6.65;;;;;;;7.42;100.00;94105.63;2087089;28;20361;-82
2024/02/01 03:24:02;;;;;;;12.20;7.25;;;;;;;7.30;100.00;94106.69;2095776;28;20494;-79
2024/02/01 03:25:04;;;;;;;14.82;7.30;;;;;;;7.26;100.00;94108.56;2091042;28;20044;-77
2024/02/01 03:26:05;;;;;;;9.50;6.70;;;;;;;7.07;100.00;94108.81;2089109;28;20037;-80
2024/02/01 03:27:11;;;;;;;11.25;6.80;;;;;;;7.34;100.00;94112.03;2091337;28;20485;-77
2024/02/01 03:28:13;;;;;;;10.13;5.65;;;;;;;7.40;100.00;94107.88;2100141;28;20043;-80
2024/02/01 03:29:16;;;;;;;11.02;6.57;;;;;;;7.22;100.00;94112.31;2107742;28;20035;-82
2024/02/01 03:30:17;;;;;;;12.55;7.38;;;;;;;7.26;100.00;94111.22;2099053;28;20028;-81
2024/02/01 03:31:19;;;;;;;13.43;7.00;;;;;;;7.16;100.00;94101.28;2089841;28;20028;-78
2024/02/01 03:32:20;;;;;;;13.02;7.72;;;;;;;7.20;100.00;94106.59;2090173;28;20021;-80
2024/02/01 03:33:22;;;;;;;12.13;6.90;;;;;;;7.28;100.00;94100.19;2090440;28;20502;-82
2024/02/01 03:34:27;;;;;;;12.27;7.88;;;;;;;7.21;100.00;94108.16;2090387;28;20025;-76
2024/02/01 03:35:31;;;;;;;18.65;8.57;;;;;;;7.29;100.00;94121.13;2091082;28;20032;-81
2024/02/01 03:36:35;;;;;;;13.90;7.55;;;;;;;7.31;100.00;94112.75;2082989;28;20049;-78
2024/02/01 03:37:37;;;;;;;12.73;7.07;;;;;;;7.24;100.00;94112.69;2083247;28;20037;-78
2024/02/01 03:38:40;;;;;;;11.18;6.68;;;;;;;7.17;100.00;94123.31;2090574;28;20484;-76
2024/02/01 03:39:41;;;;;;;10.57;6.95;;;;;;;7.24;100.00;94120.69;2082291;28;20080;-78
2024/02/01 03:40:42;;;;;;;12.02;7.40;;;;;;;7.31;100.00;94126.06;2080871;28;20026;-80
2024/02/01 03:41:43;;;;;;;13.07;7.22;;;;;;;7.30;100.00;94135.19;2095057;28;20032;-77
2024/02/01 03:42:46;;;;;;;13.20;7.63;;;;;;;7.36;100.00;94152.31;2088979;28;20091;-79
2024/02/01 03:43:48;;;;;;;11.32;7.32;;;;;;;7.46;100.00;94151.63;2090162;28;20114;-80
2024/02/01 03:44:49;;;;;;;14.18;7.40;;;;;;;7.45;100.00;94155.41;2093057;28;20035;-79
2024/02/01 03:45:50;;;;;;;9.73;6.65;;;;;;;7.54;100.00;94157.75;2089741;28;20067;-78
2024/02/01 03:46:53;;;;;;;11.45;6.97;;;;;;;7.65;100.00;94157.84;2092023;28;20115;-79
2024/02/01 03:47:54;;;;;;;13.43;7.05;;;;;;;7.55;100.00;94157.41;2094010;28;20535;-80
2024/02/01 03:48:55;;;;;;;13.05;7.13;;;;;;;7.69;100.00;94161.28;2004141;28;20037;-80
2024/02/01 03:49:56;;;;;;;10.25;6.20;;;;;;;7.68;100.00;94151.75;2006156;28;20123;-77
2024/02/01 03:50:57;;;;;;;14.80;6.82;;;;;;;7.57;100.00;94154.34;2014574;28;20055;-78
2024/02/01 03:51:58;;;;;;;12.27;6.68;;;;;;;7.49;100.00;94158.84;2018881;28;20122;-78
2024/02/01 03:52:59;;;;;;;15.93;7.25;;;;;;;7.57;100.00;94149.78;2034265;28;20031;-78
2024/02/01 03:54:05;;;;;;;12.73;7.50;;;;;;;7.47;100.00;94158.47;2038103;28;20055;-79
2024/02/01 03:55:16;;;;;;;12.88;6.72;;;;;;;7.43;100.00;94151.59;2036090;28;20406;-80
2024/02/01 03:56:23;;;;;;;9.43;6.90;;;;;;;7.57;100.00;94149.78;2036042;28;20091;-79
2024/02/01 03:57:24;;;;;;;9.70;7.10;;;;;;;7.49;100.00;94155.44;2070091;28;20035;-78
2024/02/01 03:58:26;;;;;;;12.77;7.57;;;;;;;7.36;100.00;94157.63;2073381;28;20529;-78
2024/02/01 03:59:27;;;;;;;13.13;8.40;;;;;;;7.26;100.00;94166.28;2062567;28;22536;-80
2024/02/01 04:00:28;;;;;;;13.05;7.68;;;;;;;7.39;100.00;94159.56;2084121;28;20142;-80
2024/02/01 04:01:30;;;;;;;11.98;7.28;;;;;;;7.25;100.00;94168.19;2091847;28;20496;-79
2024/02/01 04:02:31;;;;;;;12.48;7.18;;;;;;;7.25;100.00;94160.22;2089829;28;20029;-80
2024/02/01 04:03:32;;;;;;;16.45;7.70;;;;;;;7.10;100.00;94160.47;2089590;28;20375;-79
2024/02/01 04:04:33;;;;;;;11.30;7.57;;;;;;;7.20;100.00;94157.13;2089881;28;20433;-76
2024/02/01 04:05:36;;;;;;;13.13;7.53;;;;;;;7.17;100.00;94149.91;2081534;28;20108;-79
2024/02/01 04:06:37;;;;;;;13.85;7.80;;;;;;;7.12;100.00;94142.25;2098246;28;20060;-81
2024/02/01 04:07:39;;;;;;;12.98;7.40;;;;;;;7.27;100.00;94144.66;2105732;28;20557;-79
2024/02/01 04:08:40;;;;;;;14.70;7.80;;;;;;;7.21;100.00;94135.50;2089853;28;20028;-78
2024/02/01 04:09:45;;;;;;;15.77;7.07;;;;;;;7.17;100.00;94144.56;2091037;28;20107;-78
2024/02/01 04:10:46;;;;;;;13.70;7.40;;;;;;;7.16;100.00;94135.84;2090349;28;20111;-79
2024/02/01 04:11:47;;;;;;;13.52;7.47;;;;;;;7.22;100.00;94129.03;2089815;28;20115;-81
2024/02/01 04:12:48;;;;;;;17.08;7.80;;;;;;;7.10;100.00;94118.69;2097891;28;20043;-76
2024/02/01 04:13:49;;;;;;;11.55;8.05;;;;;;;7.10;100.00;94121.34;2106190;28;20046;-81
2024/02/01 04:14:50;;;;;;;15.70;8.73;;;;;;;7.05;100.00;94121.69;2093978;28;20046;-78
2024/02/01 04:15:52;;;;;;;15.48;8.32;;;;;;;7.09;100.00;94114.50;2097911;28;20103;-78
2024/02/01 04:16:55;;;;;;;13.45;7.35;;;;;;;6.98;100.00;94121.63;2098216;28;20400;-80
2024/02/01 04:17:57;;;;;;;12.25;7.60;;;;;;;7.13;100.00;94120.63;2089392;28;20032;-83
2024/02/01 04:18:57;;;;;;;14.70;7.80;;;;;;;7.07;100.00;94111.47;2088361;28;20021;-79
2024/02/01 04:19:58;;;;;;;12.32;7.88;;;;;;;7.02;100.00;94104.59;2089025;28;20025;-80
2024/02/01 04:21:00;;;;;;;12.57;7.82;;;;;;;7.04;100.00;94109.53;2089688;28;20024;-80
2024/02/01 04:22:01;;;;;;;17.27;7.60;;;;;;;7.13;100.00;94109.22;2086354;28;20123;-83
2024/02/01 04:23:02;;;;;;;15.05;8.07;;;;;;;7.09;100.00;94111.84;2080444;28;20051;-80
2024/02/01 04:24:03;;;;;;;14.73;7.88;;;;;;;7.25;100.00;94111.59;2093370;28;20024;-77
2024/02/01 04:25:08;;;;;;;14.77;8.20;;;;;;;7.13;100.00;94111.88;2006268;28;20684;-80
2024/02/01 04:43:19;;;;;;;;;;;;;;;6.73;100.00;94129.41;2118182;27;20566;-76
2024/02/01 04:44:23;;;;;;;12.38;7.25;;;;;;;6.67;100.00;94134.28;2095814;28;19920;-79
2024/02/01 04:45:23;;;;;;;15.32;7.75;;;;;;;6.55;100.00;94129.22;2085211;28;20029;-82
2024/02/01 04:46:24;;;;;;;17.35;8.02;;;;;;;6.42;100.00;94115.44;2071186;28;20131;-79
2024/02/01 04:47:25;;;;;;;13.77;8.13;;;;;;;6.37;100.00;94107.81;2057292;28;20029;-79
2024/02/01 04:48:26;;;;;;;15.23;8.10;;;;;;;6.63;100.00;94103.47;2069611;28;21810;-81
2024/02/01 04:49:28;;;;;;;13.20;7.93;;;;;;;6.58;100.00;94107.22;2083893;28;20052;-82
2024/02/01 04:50:29;;;;;;;10.70;7.80;;;;;;;6.64;100.00;94107.69;2061506;28;20504;-81
2024/02/01 04:51:30;;;;;;;11.20;7.32;;;;;;;6.66;100.00;94106.16;2001691;28;21517;-79
2024/02/01 04:52:33;;;;;;;10.43;7.47;;;;;;;6.55;100.00;94107.97;1963350;28;22204;-81
2024/02/01 04:53:34;;;;;;;14.77;8.07;;;;;;;6.41;100.00;94107.81;2045500;28;20359;-81
2024/02/01 04:54:37;;;;;;;14.07;7.65;;;;;;;6.31;100.00;94111.91;1824277;28;21335;-79
2024/02/01 04:55:37;;;;;;;13.63;7.60;;;;;;;6.31;100.00;94101.28;1856211;28;20864;-79
2024/02/01 04:56:40;;;;;;;17.40;8.05;;;;;;;6.27;100.00;94103.13;1886365;28;21700;-80
2024/02/01 04:57:41;;;;;;;13.80;8.20;;;;;;;6.23;100.00;94097.81;1669781;28;22172;-79
2024/02/01 04:58:42;;;;;;;15.20;7.75;;;;;;;6.23;100.00;94100.47;1700924;28;22941;-83
2024/02/01 04:59:44;;;;;;;13.18;7.57;;;;;;;6.25;100.00;94113.34;1696624;28;23130;-79
2024/02/01 05:00:46;;;;;;;15.18;8.20;;;;;;;6.21;100.00;94109.91;1731106;28;20131;-80
2024/02/01 05:01:47;;;;;;;11.98;8.30;;;;;;;6.23;100.00;94119.03;1785715;28;20049;-79
2024/02/01 05:02:48;;;;;;;13.73;7.85;;;;;;;6.29;100.00;94116.81;1820124;28;22126;-80
2024/02/01 05:03:50;;;;;;;12.05;8.07;;;;;;;6.30;100.00;94116.44;1833872;28;20037;-79
2024/02/01 05:04:51;;;;;;;13.82;8.45;;;;;;;6.29;100.00;94116.81;1790292;28;20040;-80
2024/02/01 05:05:52;;;;;;;11.50;7.25;;;;;;;6.22;100.00;94114.84;1754889;28;20169;-78